Terminal Aerodrome Forecast
Issued by NWS

Home | Current Version | Previous Version | Text Only | Print | Product List | Glossary On
Versions: 1 2 3 4 5 6 7 8 9 10 11 12 13 14 15 16 17 18 19 20 21 22 23 24
000
FTUS43 KABR 120500
TAFPIR
TAF
KPIR 120524Z 1206/1306 03004KT P6SM SKC
     FM120800 02006KT P6SM -SHRA VCTS SCT040CB OVC070
     FM121200 05006KT P6SM VCSH BKN040
     FM121800 15004KT P6SM BKN250=

USA.gov is the U.S. government's official web portal to all federal, state and local government web resources and services.